^^
Saratoga-Weather Station Historical Data
Daily Summary for May 30, 2020 Units:  Both    English   Metric
Daily Weekly Monthly Yearly Custom
  High: Low: Average:
Temperature: 39.6 °F /  4.2 °C 36 °F /  2.2 °C 37.9 °F /  3.3 °C
Dew Point: 37.8 °F /  3.2 °C 34.7 °F /  1.5 °C 36.3 °F /  2.4 °C
Humidity: 97% 91% 94%
Wind Speed: 6.9mph /  11.1km/h - 1.1mph /  1.8km/h
Wind Gust: 12mph /  19.3km/h - -
Wind- - WSW
Pressure: 29.7 in /  1006.8 hPa 29.4 in /  996.6 hPa -
Precipitation: 0.3 in /  7.6 mm    
Historical Graphs
 
 
Tabular Data for May 30, 2020
Time Temperature Dew Point Pressure Wind Wind Speed Wind Gust Humidity Rainfall Rate (Hourly) solar
00:03 38.1 °F /  3.4 °C 37.4 °F /  3 °C 29.4in /  996.6hPa North 2.9mph /  4.7km/h 6mph /  9.7km/h 97% 0.03in /  0.8mm 0 W/m2
00:08 38.1 °F /  3.4 °C 37.4 °F /  3 °C 29.4in /  996.6hPa WNW 0.9mph /  1.4km/h 3mph /  4.8km/h 97% 0.03in /  0.8mm 0 W/m2
00:13 38.3 °F /  3.5 °C 37.6 °F /  3.1 °C 29.4in /  996.6hPa NW 0.9mph /  1.4km/h 7mph /  11.3km/h 97% 0.03in /  0.8mm 0 W/m2
00:18 38.3 °F /  3.5 °C 37.2 °F /  2.9 °C 29.4in /  997.0hPa NW 0.9mph /  1.4km/h 2mph /  3.2km/h 96% 0.03in /  0.8mm 0 W/m2
00:23 38.3 °F /  3.5 °C 37.2 °F /  2.9 °C 29.4in /  997.0hPa West 2mph /  3.2km/h 3mph /  4.8km/h 96% 0.02in /  0.5mm 0 W/m2
00:28 38.3 °F /  3.5 °C 37.2 °F /  2.9 °C 29.4in /  997.0hPa East 2mph /  3.2km/h 2mph /  3.2km/h 96% 0.02in /  0.5mm 0 W/m2
00:33 38.3 °F /  3.5 °C 37.2 °F /  2.9 °C 29.4in /  997.0hPa North 0.9mph /  1.4km/h 3mph /  4.8km/h 96% 0.02in /  0.5mm 0 W/m2
00:38 38.5 °F /  3.6 °C 37.4 °F /  3 °C 29.4in /  997.0hPa ENE 0.9mph /  1.4km/h 2mph /  3.2km/h 96% 0.02in /  0.5mm 0 W/m2
00:43 38.5 °F /  3.6 °C 37.4 °F /  3 °C 29.4in /  997.0hPa Calm   2mph /  3.2km/h 96% 0.02in /  0.5mm 0 W/m2
00:48 38.5 °F /  3.6 °C 37.4 °F /  3 °C 29.4in /  997.0hPa Calm   2mph /  3.2km/h 96% 0.01in /  0.2mm 0 W/m2
00:53 38.5 °F /  3.6 °C 37.4 °F /  3 °C 29.4in /  997.0hPa West 2.9mph /  4.7km/h 7mph /  11.3km/h 96% 0.01in /  0.2mm 0 W/m2
00:58 38.5 °F /  3.6 °C 37.4 °F /  3 °C 29.4in /  997.0hPa Calm     96% 0in /  0.0mm 0 W/m2
01:03 38.5 °F /  3.6 °C 37.4 °F /  3 °C 29.4in /  997.0hPa Calm   7mph /  11.3km/h 96% 0in /  0.0mm 0 W/m2
01:08 38.5 °F /  3.6 °C 37.4 °F /  3 °C 29.4in /  997.0hPa Calm   3mph /  4.8km/h 96% 0in /  0.0mm 0 W/m2
01:13 38.5 °F /  3.6 °C 37.2 °F /  2.9 °C 29.4in /  997.0hPa NW 0.9mph /  1.4km/h 2mph /  3.2km/h 95% 0in /  0.0mm 0 W/m2
01:18 38.3 °F /  3.5 °C 37 °F /  2.8 °C 29.4in /  997.0hPa Calm   2mph /  3.2km/h 95% 0in /  0.0mm 0 W/m2
01:23 38.3 °F /  3.5 °C 37.2 °F /  2.9 °C 29.4in /  997.0hPa Calm     96% 0in /  0.0mm 0 W/m2
01:28 38.5 °F /  3.6 °C 37.4 °F /  3 °C 29.4in /  997.0hPa Calm   3mph /  4.8km/h 96% 0in /  0.0mm 0 W/m2
01:34 38.3 °F /  3.5 °C 37.2 °F /  2.9 °C 29.4in /  997.0hPa ESE 2mph /  3.2km/h 3mph /  4.8km/h 96% 0in /  0.0mm 0 W/m2
01:39 38.5 °F /  3.6 °C 37.4 °F /  3 °C 29.5in /  997.3hPa Calm   1mph /  1.6km/h 96% 0in /  0.0mm 0 W/m2
01:44 38.5 °F /  3.6 °C 37.4 °F /  3 °C 29.5in /  997.3hPa Calm   3mph /  4.8km/h 96% 0in /  0.0mm 0 W/m2
01:49 38.5 °F /  3.6 °C 37.4 °F /  3 °C 29.5in /  997.3hPa Calm   2mph /  3.2km/h 96% 0in /  0.0mm 0 W/m2
01:54 38.5 °F /  3.6 °C 37.4 °F /  3 °C 29.5in /  997.3hPa Calm   1mph /  1.6km/h 96% 0in /  0.0mm 0 W/m2
01:59 38.5 °F /  3.6 °C 37.2 °F /  2.9 °C 29.5in /  997.3hPa SW 0.9mph /  1.4km/h 4mph /  6.4km/h 95% 0in /  0.0mm 0 W/m2
02:04 38.5 °F /  3.6 °C 37.2 °F /  2.9 °C 29.5in /  997.3hPa ESE 0.9mph /  1.4km/h 2mph /  3.2km/h 95% 0in /  0.0mm 0 W/m2
02:09 38.5 °F /  3.6 °C 37.2 °F /  2.9 °C 29.5in /  997.6hPa SSE 0.9mph /  1.4km/h 4mph /  6.4km/h 95% 0in /  0.0mm 0 W/m2
02:14 38.5 °F /  3.6 °C 37.2 °F /  2.9 °C 29.5in /  997.6hPa Calm   4mph /  6.4km/h 95% 0in /  0.0mm 0 W/m2
02:19 38.7 °F /  3.7 °C 37.4 °F /  3 °C 29.5in /  997.6hPa Calm   1mph /  1.6km/h 95% 0in /  0.0mm 0 W/m2
02:24 38.7 °F /  3.7 °C 37.4 °F /  3 °C 29.5in /  997.6hPa West 0.9mph /  1.4km/h 4mph /  6.4km/h 95% 0in /  0.0mm 0 W/m2
02:29 38.7 °F /  3.7 °C 37.4 °F /  3 °C 29.5in /  997.6hPa NNW 0.9mph /  1.4km/h 2mph /  3.2km/h 95% 0in /  0.0mm 0 W/m2
02:34 38.7 °F /  3.7 °C 37.4 °F /  3 °C 29.5in /  998.0hPa East 2mph /  3.2km/h 2mph /  3.2km/h 95% 0in /  0.0mm 0 W/m2
02:39 38.7 °F /  3.7 °C 37.4 °F /  3 °C 29.5in /  998.0hPa WSW 0.9mph /  1.4km/h 5mph /  8km/h 95% 0in /  0.0mm 0 W/m2
02:44 38.8 °F /  3.8 °C 37.6 °F /  3.1 °C 29.5in /  998.0hPa Calm   1mph /  1.6km/h 95% 0in /  0.0mm 0 W/m2
02:49 38.8 °F /  3.8 °C 37.6 °F /  3.1 °C 29.5in /  998.0hPa Calm   1mph /  1.6km/h 95% 0in /  0.0mm 0 W/m2
02:54 38.8 °F /  3.8 °C 37.6 °F /  3.1 °C 29.5in /  998.0hPa West 2mph /  3.2km/h 3mph /  4.8km/h 95% 0in /  0.0mm 0 W/m2
02:59 38.8 °F /  3.8 °C 37.6 °F /  3.1 °C 29.5in /  998.0hPa Calm   1mph /  1.6km/h 95% 0in /  0.0mm 0 W/m2
03:04 38.8 °F /  3.8 °C 37.6 °F /  3.1 °C 29.5in /  998.0hPa West 2mph /  3.2km/h 2mph /  3.2km/h 95% 0in /  0.0mm 0 W/m2
03:09 38.8 °F /  3.8 °C 37.6 °F /  3.1 °C 29.5in /  998.0hPa West 4mph /  6.4km/h 4mph /  6.4km/h 95% 0in /  0.0mm 0 W/m2
03:14 38.8 °F /  3.8 °C 37.6 °F /  3.1 °C 29.5in /  998.0hPa West 0.9mph /  1.4km/h 2mph /  3.2km/h 95% 0.01in /  0.2mm 0 W/m2
03:19 38.8 °F /  3.8 °C 37.6 °F /  3.1 °C 29.5in /  998.0hPa Calm   1mph /  1.6km/h 95% 0.01in /  0.2mm 0 W/m2
03:24 38.8 °F /  3.8 °C 37.6 °F /  3.1 °C 29.5in /  998.0hPa Calm   2mph /  3.2km/h 95% 0.01in /  0.2mm 0 W/m2
03:29 38.8 °F /  3.8 °C 37.6 °F /  3.1 °C 29.5in /  998.3hPa Calm   1mph /  1.6km/h 95% 0.01in /  0.2mm 0 W/m2
03:34 38.8 °F /  3.8 °C 37.6 °F /  3.1 °C 29.5in /  998.3hPa Calm   2mph /  3.2km/h 95% 0.01in /  0.2mm 0 W/m2
03:39 38.7 °F /  3.7 °C 37.4 °F /  3 °C 29.5in /  998.3hPa Calm   1mph /  1.6km/h 95% 0.01in /  0.2mm 0 W/m2
03:44 38.7 °F /  3.7 °C 37.4 °F /  3 °C 29.5in /  998.3hPa West 2.9mph /  4.7km/h 4mph /  6.4km/h 95% 0.01in /  0.2mm 0 W/m2
03:49 38.7 °F /  3.7 °C 37.4 °F /  3 °C 29.5in /  998.3hPa NW 0.9mph /  1.4km/h 3mph /  4.8km/h 95% 0.01in /  0.2mm 0 W/m2
03:54 38.8 °F /  3.8 °C 37.6 °F /  3.1 °C 29.5in /  998.3hPa NNE 0.9mph /  1.4km/h 2mph /  3.2km/h 95% 0.01in /  0.2mm 0 W/m2
03:59 38.8 °F /  3.8 °C 37.6 °F /  3.1 °C 29.5in /  998.3hPa Calm   1mph /  1.6km/h 95% 0.01in /  0.2mm 0 W/m2
04:04 38.8 °F /  3.8 °C 37.6 °F /  3.1 °C 29.5in /  998.6hPa WNW 2.9mph /  4.7km/h 4mph /  6.4km/h 95% 0.01in /  0.2mm 0 W/m2
04:09 38.8 °F /  3.8 °C 37.6 °F /  3.1 °C 29.5in /  998.6hPa West 2mph /  3.2km/h 3mph /  4.8km/h 95% 0.02in /  0.5mm 0 W/m2
04:14 38.8 °F /  3.8 °C 37.6 °F /  3.1 °C 29.5in /  998.6hPa West 0.9mph /  1.4km/h 4mph /  6.4km/h 95% 0.02in /  0.5mm 0 W/m2
04:19 38.7 °F /  3.7 °C 37.4 °F /  3 °C 29.5in /  998.6hPa NW 0.9mph /  1.4km/h 4mph /  6.4km/h 95% 0.02in /  0.5mm 0 W/m2
04:24 38.5 °F /  3.6 °C 36.9 °F /  2.7 °C 29.5in /  998.6hPa West 2mph /  3.2km/h 4mph /  6.4km/h 94% 0.02in /  0.5mm 0 W/m2
04:29 38.1 °F /  3.4 °C 36.5 °F /  2.5 °C 29.5in /  998.6hPa WNW 2mph /  3.2km/h 7mph /  11.3km/h 94% 0.03in /  0.8mm 0 W/m2
04:34 37.9 °F /  3.3 °C 36.3 °F /  2.4 °C 29.5in /  998.6hPa WNW 2.9mph /  4.7km/h 4mph /  6.4km/h 94% 0.04in /  1.0mm 0 W/m2
04:39 37.6 °F /  3.1 °C 36 °F /  2.2 °C 29.5in /  998.6hPa West 0.9mph /  1.4km/h 7mph /  11.3km/h 94% 0.04in /  1.0mm 0 W/m2
04:44 37.2 °F /  2.9 °C 35.6 °F /  2 °C 29.5in /  998.6hPa WNW 0.9mph /  1.4km/h 4mph /  6.4km/h 94% 0.04in /  1.0mm 0 W/m2
04:49 37.2 °F /  2.9 °C 35.6 °F /  2 °C 29.5in /  998.6hPa Calm   1mph /  1.6km/h 94% 0.04in /  1.0mm 0 W/m2
04:54 37 °F /  2.8 °C 35.4 °F /  1.9 °C 29.5in /  998.6hPa Calm     94% 0.04in /  1.0mm 0 W/m2
04:59 37 °F /  2.8 °C 35.4 °F /  1.9 °C 29.5in /  998.6hPa Calm     94% 0.04in /  1.0mm 0 W/m2
05:04 37 °F /  2.8 °C 35.4 °F /  1.9 °C 29.5in /  998.6hPa Calm     94% 0.04in /  1.0mm 0 W/m2
05:09 37 °F /  2.8 °C 35.4 °F /  1.9 °C 29.5in /  998.6hPa Calm     94% 0.03in /  0.8mm 0 W/m2
05:14 36.9 °F /  2.7 °C 35.2 °F /  1.8 °C 29.5in /  998.6hPa Calm     94% 0.02in /  0.5mm 0 W/m2
05:19 36.9 °F /  2.7 °C 35.2 °F /  1.8 °C 29.5in /  998.6hPa Calm     94% 0.02in /  0.5mm 0 W/m2
05:24 36.9 °F /  2.7 °C 35.6 °F /  2 °C 29.5in /  998.6hPa WNW 0.9mph /  1.4km/h 1mph /  1.6km/h 95% 0.02in /  0.5mm 0 W/m2
05:29 36.9 °F /  2.7 °C 35.6 °F /  2 °C 29.5in /  999.0hPa Calm     95% 0.01in /  0.2mm 0 W/m2
05:35 36.7 °F /  2.6 °C 35.4 °F /  1.9 °C 29.5in /  999.0hPa Calm     95% 0in /  0.0mm 0 W/m2
05:40 36.7 °F /  2.6 °C 35.4 °F /  1.9 °C 29.5in /  999.0hPa Calm     95% 0in /  0.0mm 0 W/m2
05:45 36.7 °F /  2.6 °C 35.4 °F /  1.9 °C 29.5in /  999.0hPa Calm   1mph /  1.6km/h 95% 0in /  0.0mm 0 W/m2
05:50 36.9 °F /  2.7 °C 35.6 °F /  2 °C 29.5in /  999.3hPa Calm   2mph /  3.2km/h 95% 0in /  0.0mm 0 W/m2
05:55 36.9 °F /  2.7 °C 35.6 °F /  2 °C 29.5in /  999.3hPa NNW 0.9mph /  1.4km/h 1mph /  1.6km/h 95% 0in /  0.0mm 0 W/m2
06:00 37 °F /  2.8 °C 35.8 °F /  2.1 °C 29.5in /  999.3hPa Calm     95% 0in /  0.0mm 0 W/m2
06:05 37 °F /  2.8 °C 36 °F /  2.2 °C 29.5in /  999.3hPa Calm     96% 0in /  0.0mm 0 W/m2
06:10 37.2 °F /  2.9 °C 36.1 °F /  2.3 °C 29.5in /  999.3hPa ENE 0.9mph /  1.4km/h 2mph /  3.2km/h 96% 0in /  0.0mm 0 W/m2
06:15 37.2 °F /  2.9 °C 36.1 °F /  2.3 °C 29.5in /  999.3hPa Calm     96% 0in /  0.0mm 0 W/m2
06:20 37.4 °F /  3 °C 36.3 °F /  2.4 °C 29.5in /  999.3hPa Calm     96% 0in /  0.0mm 0 W/m2
06:25 37.4 °F /  3 °C 36.3 °F /  2.4 °C 29.5in /  999.3hPa Calm     96% 0in /  0.0mm 0 W/m2
06:30 37.4 °F /  3 °C 36.3 °F /  2.4 °C 29.5in /  999.3hPa Calm     96% 0in /  0.0mm 0 W/m2
06:35 37.2 °F /  2.9 °C 36.1 °F /  2.3 °C 29.5in /  999.3hPa Calm     96% 0in /  0.0mm 0 W/m2
06:40 37.2 °F /  2.9 °C 36.1 °F /  2.3 °C 29.5in /  999.7hPa Calm   1mph /  1.6km/h 96% 0in /  0.0mm 0 W/m2
06:45 37.2 °F /  2.9 °C 36.1 °F /  2.3 °C 29.5in /  999.7hPa Calm   1mph /  1.6km/h 96% 0in /  0.0mm 0 W/m2
06:50 37.2 °F /  2.9 °C 36.1 °F /  2.3 °C 29.5in /  999.7hPa Calm     96% 0in /  0.0mm 0 W/m2
06:55 37 °F /  2.8 °C 36 °F /  2.2 °C 29.5in /  999.7hPa Calm     96% 0in /  0.0mm 0 W/m2
07:00 37.2 °F /  2.9 °C 36.1 °F /  2.3 °C 29.5in /  999.7hPa Calm     96% 0in /  0.0mm 0 W/m2
07:05 37 °F /  2.8 °C 36 °F /  2.2 °C 29.5in /  999.7hPa Calm     96% 0in /  0.0mm 0 W/m2
07:10 37.2 °F /  2.9 °C 36.1 °F /  2.3 °C 29.5in /  1000.0hPa Calm     96% 0in /  0.0mm 0 W/m2
07:15 37.2 °F /  2.9 °C 36.1 °F /  2.3 °C 29.5in /  1000.0hPa SSE 0.9mph /  1.4km/h 1mph /  1.6km/h 96% 0in /  0.0mm 0 W/m2
07:20 37.2 °F /  2.9 °C 36.1 °F /  2.3 °C 29.5in /  1000.0hPa SSE 0.9mph /  1.4km/h 1mph /  1.6km/h 96% 0in /  0.0mm 0 W/m2
07:25 37.4 °F /  3 °C 36.3 °F /  2.4 °C 29.5in /  1000.0hPa Calm   1mph /  1.6km/h 96% 0in /  0.0mm 0 W/m2
07:30 37.6 °F /  3.1 °C 36.5 °F /  2.5 °C 29.5in /  1000.0hPa Calm     96% 0in /  0.0mm 0 W/m2
07:35 37.6 °F /  3.1 °C 36.5 °F /  2.5 °C 29.5in /  1000.0hPa Calm   3mph /  4.8km/h 96% 0in /  0.0mm 0 W/m2
07:40 37.6 °F /  3.1 °C 36.5 °F /  2.5 °C 29.5in /  1000.3hPa ESE 0.9mph /  1.4km/h 1mph /  1.6km/h 96% 0in /  0.0mm 0 W/m2
07:45 37.6 °F /  3.1 °C 36.5 °F /  2.5 °C 29.5in /  1000.0hPa Calm     96% 0in /  0.0mm 0 W/m2
07:50 37.8 °F /  3.2 °C 36.7 °F /  2.6 °C 29.5in /  1000.3hPa WNW 0.9mph /  1.4km/h 1mph /  1.6km/h 96% 0in /  0.0mm 0 W/m2
07:55 37.8 °F /  3.2 °C 36.7 °F /  2.6 °C 29.5in /  1000.3hPa Calm     96% 0in /  0.0mm 0 W/m2
08:00 37.8 °F /  3.2 °C 36.7 °F /  2.6 °C 29.5in /  1000.3hPa Calm     96% 0.01in /  0.2mm 0 W/m2
08:05 37.8 °F /  3.2 °C 36.7 °F /  2.6 °C 29.5in /  1000.3hPa Calm   2mph /  3.2km/h 96% 0.01in /  0.2mm 0 W/m2
08:10 37.8 °F /  3.2 °C 36.7 °F /  2.6 °C 29.5in /  1000.3hPa Calm     96% 0.01in /  0.2mm 0 W/m2
08:15 37.8 °F /  3.2 °C 36.7 °F /  2.6 °C 29.5in /  1000.3hPa Calm   2mph /  3.2km/h 96% 0.01in /  0.2mm 0 W/m2
08:20 37.9 °F /  3.3 °C 36.9 °F /  2.7 °C 29.6in /  1000.7hPa Calm   2mph /  3.2km/h 96% 0.01in /  0.2mm 0 W/m2
08:25 37.8 °F /  3.2 °C 36.7 °F /  2.6 °C 29.6in /  1000.7hPa NW 2.9mph /  4.7km/h 3mph /  4.8km/h 96% 0.02in /  0.5mm 0 W/m2
08:30 37.9 °F /  3.3 °C 36.9 °F /  2.7 °C 29.6in /  1000.7hPa WNW 0.9mph /  1.4km/h 2mph /  3.2km/h 96% 0.02in /  0.5mm 0 W/m2
08:35 37.9 °F /  3.3 °C 36.9 °F /  2.7 °C 29.6in /  1001.0hPa WNW 0.9mph /  1.4km/h 4mph /  6.4km/h 96% 0.02in /  0.5mm 0 W/m2
08:40 37.8 °F /  3.2 °C 36.7 °F /  2.6 °C 29.6in /  1001.4hPa NW 2mph /  3.2km/h 4mph /  6.4km/h 96% 0.04in /  1.0mm 0 W/m2
08:45 37.2 °F /  2.9 °C 36 °F /  2.2 °C 29.6in /  1001.4hPa West 0.9mph /  1.4km/h 4mph /  6.4km/h 95% 0.06in /  1.5mm 0 W/m2
08:50 36.9 °F /  2.7 °C 35.6 °F /  2 °C 29.6in /  1001.4hPa WNW 2mph /  3.2km/h 3mph /  4.8km/h 95% 0.08in /  2.0mm 0 W/m2
08:55 36.7 °F /  2.6 °C 35.4 °F /  1.9 °C 29.6in /  1001.4hPa Calm     95% 0.09in /  2.3mm 0 W/m2
09:00 36.3 °F /  2.4 °C 35.1 °F /  1.7 °C 29.6in /  1001.4hPa Calm     95% 0.09in /  2.3mm 0 W/m2
09:05 36.1 °F /  2.3 °C 34.9 °F /  1.6 °C 29.6in /  1001.7hPa Calm   1mph /  1.6km/h 95% 0.09in /  2.3mm 5 W/m2
09:10 36.1 °F /  2.3 °C 34.9 °F /  1.6 °C 29.6in /  1001.7hPa Calm   2mph /  3.2km/h 95% 0.09in /  2.3mm 5 W/m2
09:15 36.1 °F /  2.3 °C 34.9 °F /  1.6 °C 29.6in /  1001.7hPa NW 0.9mph /  1.4km/h 2mph /  3.2km/h 95% 0.11in /  2.8mm 7 W/m2
09:20 36 °F /  2.2 °C 34.7 °F /  1.5 °C 29.6in /  1001.7hPa Calm     95% 0.12in /  3.0mm 12 W/m2
09:25 36 °F /  2.2 °C 34.7 °F /  1.5 °C 29.6in /  1002.0hPa Calm     95% 0.11in /  2.8mm 11 W/m2
09:30 36 °F /  2.2 °C 34.7 °F /  1.5 °C 29.6in /  1002.0hPa Calm     95% 0.12in /  3.0mm 14 W/m2
09:35 36 °F /  2.2 °C 34.7 °F /  1.5 °C 29.6in /  1002.0hPa Calm     95% 0.13in /  3.3mm 28 W/m2
09:40 36 °F /  2.2 °C 34.9 °F /  1.6 °C 29.6in /  1002.0hPa Calm     96% 0.11in /  2.8mm 21 W/m2
09:45 36.1 °F /  2.3 °C 35.1 °F /  1.7 °C 29.6in /  1002.0hPa Calm   1mph /  1.6km/h 96% 0.09in /  2.3mm 9 W/m2
09:50 36.1 °F /  2.3 °C 35.1 °F /  1.7 °C 29.6in /  1002.0hPa NW 0.9mph /  1.4km/h 4mph /  6.4km/h 96% 0.09in /  2.3mm 7 W/m2
09:55 36.1 °F /  2.3 °C 35.1 °F /  1.7 °C 29.6in /  1002.4hPa West 2.9mph /  4.7km/h 3mph /  4.8km/h 96% 0.07in /  1.8mm 11 W/m2
10:00 36.1 °F /  2.3 °C 35.1 °F /  1.7 °C 29.6in /  1002.4hPa Calm   1mph /  1.6km/h 96% 0.09in /  2.3mm 16 W/m2
10:05 36.1 °F /  2.3 °C 35.1 °F /  1.7 °C 29.6in /  1002.4hPa WNW 0.9mph /  1.4km/h 2mph /  3.2km/h 96% 0.09in /  2.3mm 23 W/m2
10:10 36.1 °F /  2.3 °C 35.1 °F /  1.7 °C 29.6in /  1002.4hPa WNW 2.9mph /  4.7km/h 3mph /  4.8km/h 96% 0.09in /  2.3mm 33 W/m2
10:15 36.1 °F /  2.3 °C 35.1 °F /  1.7 °C 29.6in /  1002.4hPa Calm   2mph /  3.2km/h 96% 0.08in /  2.0mm 37 W/m2
10:20 36.3 °F /  2.4 °C 35.2 °F /  1.8 °C 29.6in /  1002.4hPa WNW 0.9mph /  1.4km/h 3mph /  4.8km/h 96% 0.07in /  1.8mm 49 W/m2
10:25 36.5 °F /  2.5 °C 35.4 °F /  1.9 °C 29.6in /  1002.7hPa West 2.9mph /  4.7km/h 4mph /  6.4km/h 96% 0.08in /  2.0mm 47 W/m2
10:30 36.7 °F /  2.6 °C 35.6 °F /  2 °C 29.6in /  1002.7hPa West 2mph /  3.2km/h 3mph /  4.8km/h 96% 0.07in /  1.8mm 33 W/m2
10:35 36.9 °F /  2.7 °C 35.8 °F /  2.1 °C 29.6in /  1002.7hPa WNW 2mph /  3.2km/h 4mph /  6.4km/h 96% 0.07in /  1.8mm 51 W/m2
10:40 36.9 °F /  2.7 °C 35.8 °F /  2.1 °C 29.6in /  1002.7hPa WNW 2mph /  3.2km/h 3mph /  4.8km/h 96% 0.06in /  1.5mm 44 W/m2
10:46 36.9 °F /  2.7 °C 35.6 °F /  2 °C 29.6in /  1003.0hPa West 2mph /  3.2km/h 3mph /  4.8km/h 95% 0.06in /  1.5mm 42 W/m2
10:51 36.9 °F /  2.7 °C 35.6 °F /  2 °C 29.6in /  1003.0hPa West 0.9mph /  1.4km/h 2mph /  3.2km/h 95% 0.06in /  1.5mm 49 W/m2
10:56 36.9 °F /  2.7 °C 35.6 °F /  2 °C 29.6in /  1003.0hPa Calm   2mph /  3.2km/h 95% 0.06in /  1.5mm 44 W/m2
11:01 37 °F /  2.8 °C 35.8 °F /  2.1 °C 29.6in /  1003.0hPa WNW 0.9mph /  1.4km/h 4mph /  6.4km/h 95% 0.04in /  1.0mm 54 W/m2
11:06 37 °F /  2.8 °C 36 °F /  2.2 °C 29.6in /  1003.0hPa WNW 2mph /  3.2km/h 2mph /  3.2km/h 96% 0.03in /  0.8mm 53 W/m2
11:11 37.2 °F /  2.9 °C 36.1 °F /  2.3 °C 29.6in /  1003.0hPa Calm   6mph /  9.7km/h 96% 0.02in /  0.5mm 44 W/m2
11:16 37.4 °F /  3 °C 36.1 °F /  2.3 °C 29.6in /  1003.0hPa Calm     95% 0.02in /  0.5mm 65 W/m2
11:21 37.6 °F /  3.1 °C 36.3 °F /  2.4 °C 29.6in /  1003.0hPa WNW 0.9mph /  1.4km/h 3mph /  4.8km/h 95% 0.02in /  0.5mm 35 W/m2
11:26 37.8 °F /  3.2 °C 36.7 °F /  2.6 °C 29.6in /  1003.0hPa WNW 2mph /  3.2km/h 4mph /  6.4km/h 96% 0.02in /  0.5mm 47 W/m2
11:31 37.9 °F /  3.3 °C 36.7 °F /  2.6 °C 29.6in /  1003.0hPa WSW 6.9mph /  11.1km/h 7mph /  11.3km/h 95% 0.02in /  0.5mm 56 W/m2
11:36 37.8 °F /  3.2 °C 36.5 °F /  2.5 °C 29.6in /  1003.4hPa WSW 4mph /  6.4km/h 7mph /  11.3km/h 95% 0.01in /  0.2mm 33 W/m2
11:41 37.8 °F /  3.2 °C 36.5 °F /  2.5 °C 29.6in /  1003.4hPa WNW 2.9mph /  4.7km/h 4mph /  6.4km/h 95% 0.02in /  0.5mm 39 W/m2
11:46 37.6 °F /  3.1 °C 36.3 °F /  2.4 °C 29.6in /  1003.4hPa NW 2mph /  3.2km/h 3mph /  4.8km/h 95% 0.02in /  0.5mm 40 W/m2
11:51 37.6 °F /  3.1 °C 36.3 °F /  2.4 °C 29.6in /  1003.4hPa WSW 0.9mph /  1.4km/h 3mph /  4.8km/h 95% 0.02in /  0.5mm 70 W/m2
11:56 37.6 °F /  3.1 °C 36.3 °F /  2.4 °C 29.6in /  1003.4hPa Calm   2mph /  3.2km/h 95% 0.02in /  0.5mm 67 W/m2
12:01 37.6 °F /  3.1 °C 36.3 °F /  2.4 °C 29.6in /  1003.4hPa WNW 2.9mph /  4.7km/h 3mph /  4.8km/h 95% 0.02in /  0.5mm 53 W/m2
12:06 37.6 °F /  3.1 °C 36.3 °F /  2.4 °C 29.6in /  1003.4hPa WNW 2mph /  3.2km/h 2mph /  3.2km/h 95% 0.02in /  0.5mm 54 W/m2
12:11 37.6 °F /  3.1 °C 36.3 °F /  2.4 °C 29.6in /  1003.4hPa WNW 2.9mph /  4.7km/h 4mph /  6.4km/h 95% 0.02in /  0.5mm 67 W/m2
12:16 37.8 °F /  3.2 °C 36.5 °F /  2.5 °C 29.6in /  1003.4hPa WNW 0.9mph /  1.4km/h 4mph /  6.4km/h 95% 0.02in /  0.5mm 88 W/m2
12:21 37.8 °F /  3.2 °C 36.5 °F /  2.5 °C 29.6in /  1003.4hPa WNW 2mph /  3.2km/h 2mph /  3.2km/h 95% 0.02in /  0.5mm 69 W/m2
12:26 37.8 °F /  3.2 °C 36.5 °F /  2.5 °C 29.6in /  1003.4hPa NW 2mph /  3.2km/h 3mph /  4.8km/h 95% 0.02in /  0.5mm 49 W/m2
12:31 37.8 °F /  3.2 °C 36.5 °F /  2.5 °C 29.6in /  1003.4hPa WNW 2mph /  3.2km/h 4mph /  6.4km/h 95% 0.02in /  0.5mm 60 W/m2
12:36 37.8 °F /  3.2 °C 36.5 °F /  2.5 °C 29.6in /  1003.4hPa WNW 2mph /  3.2km/h 4mph /  6.4km/h 95% 0.01in /  0.2mm 83 W/m2
12:41 37.9 °F /  3.3 °C 36.7 °F /  2.6 °C 29.6in /  1003.4hPa WNW 2.9mph /  4.7km/h 4mph /  6.4km/h 95% 0.01in /  0.2mm 84 W/m2
12:46 37.9 °F /  3.3 °C 36.7 °F /  2.6 °C 29.6in /  1003.4hPa WSW 4mph /  6.4km/h 6mph /  9.7km/h 95% 0in /  0.0mm 70 W/m2
12:51 37.9 °F /  3.3 °C 36.7 °F /  2.6 °C 29.6in /  1003.4hPa WNW 4mph /  6.4km/h 6mph /  9.7km/h 95% 0in /  0.0mm 97 W/m2
12:56 37.9 °F /  3.3 °C 36.7 °F /  2.6 °C 29.6in /  1003.4hPa SW 2mph /  3.2km/h 5mph /  8km/h 95% 0in /  0.0mm 98 W/m2
13:01 37.9 °F /  3.3 °C 36.7 °F /  2.6 °C 29.6in /  1003.4hPa WNW 2.9mph /  4.7km/h 6mph /  9.7km/h 95% 0in /  0.0mm 107 W/m2
13:06 38.1 °F /  3.4 °C 36.9 °F /  2.7 °C 29.6in /  1003.4hPa WNW 2mph /  3.2km/h 4mph /  6.4km/h 95% 0in /  0.0mm 100 W/m2
13:11 38.1 °F /  3.4 °C 36.9 °F /  2.7 °C 29.6in /  1003.4hPa WNW 2mph /  3.2km/h 4mph /  6.4km/h 95% 0in /  0.0mm 97 W/m2
13:16 38.3 °F /  3.5 °C 37 °F /  2.8 °C 29.6in /  1003.7hPa WSW 4mph /  6.4km/h 8mph /  12.9km/h 95% 0in /  0.0mm 93 W/m2
13:21 38.5 °F /  3.6 °C 37.2 °F /  2.9 °C 29.6in /  1003.7hPa West 6mph /  9.7km/h 7mph /  11.3km/h 95% 0in /  0.0mm 79 W/m2
13:26 38.5 °F /  3.6 °C 37.2 °F /  2.9 °C 29.6in /  1003.7hPa WNW 2mph /  3.2km/h 7mph /  11.3km/h 95% 0in /  0.0mm 62 W/m2
13:31 38.5 °F /  3.6 °C 36.9 °F /  2.7 °C 29.6in /  1003.7hPa West 2mph /  3.2km/h 5mph /  8km/h 94% 0in /  0.0mm 88 W/m2
13:36 38.7 °F /  3.7 °C 37 °F /  2.8 °C 29.6in /  1003.7hPa WSW 4.9mph /  7.9km/h 7mph /  11.3km/h 94% 0in /  0.0mm 77 W/m2
13:41 38.7 °F /  3.7 °C 37 °F /  2.8 °C 29.6in /  1003.7hPa WSW 2mph /  3.2km/h 4mph /  6.4km/h 94% 0in /  0.0mm 65 W/m2
13:46 38.7 °F /  3.7 °C 37 °F /  2.8 °C 29.6in /  1003.7hPa WSW 2.9mph /  4.7km/h 5mph /  8km/h 94% 0in /  0.0mm 83 W/m2
13:51 38.7 °F /  3.7 °C 37 °F /  2.8 °C 29.6in /  1003.7hPa West 0.9mph /  1.4km/h 4mph /  6.4km/h 94% 0in /  0.0mm 69 W/m2
13:56 38.7 °F /  3.7 °C 37 °F /  2.8 °C 29.6in /  1003.7hPa WNW 2.9mph /  4.7km/h 4mph /  6.4km/h 94% 0in /  0.0mm 49 W/m2
14:01 38.7 °F /  3.7 °C 37 °F /  2.8 °C 29.6in /  1003.7hPa West 2.9mph /  4.7km/h 4mph /  6.4km/h 94% 0in /  0.0mm 47 W/m2
14:06 38.7 °F /  3.7 °C 36.9 °F /  2.7 °C 29.6in /  1003.7hPa West 2.9mph /  4.7km/h 4mph /  6.4km/h 93% 0in /  0.0mm 91 W/m2
14:11 38.7 °F /  3.7 °C 36.9 °F /  2.7 °C 29.6in /  1003.7hPa West 4mph /  6.4km/h 6mph /  9.7km/h 93% 0in /  0.0mm 37 W/m2
14:16 38.7 °F /  3.7 °C 36.9 °F /  2.7 °C 29.6in /  1003.7hPa WNW 2mph /  3.2km/h 3mph /  4.8km/h 93% 0in /  0.0mm 49 W/m2
14:21 38.8 °F /  3.8 °C 37 °F /  2.8 °C 29.6in /  1003.7hPa West 2.9mph /  4.7km/h 4mph /  6.4km/h 93% 0in /  0.0mm 84 W/m2
14:26 39 °F /  3.9 °C 37.4 °F /  3 °C 29.7in /  1004.1hPa West 0.9mph /  1.4km/h 3mph /  4.8km/h 94% 0in /  0.0mm 77 W/m2
14:31 39.2 °F /  4 °C 37.6 °F /  3.1 °C 29.7in /  1004.1hPa SW 2mph /  3.2km/h 3mph /  4.8km/h 94% 0in /  0.0mm 58 W/m2
14:36 39.4 °F /  4.1 °C 37.6 °F /  3.1 °C 29.7in /  1004.1hPa West 2mph /  3.2km/h 4mph /  6.4km/h 93% 0in /  0.0mm 47 W/m2
14:41 39.4 °F /  4.1 °C 37.6 °F /  3.1 °C 29.7in /  1004.1hPa West 0.9mph /  1.4km/h 3mph /  4.8km/h 93% 0in /  0.0mm 53 W/m2
14:46 39.6 °F /  4.2 °C 37.8 °F /  3.2 °C 29.7in /  1004.1hPa WSW 2mph /  3.2km/h 4mph /  6.4km/h 93% 0in /  0.0mm 62 W/m2
14:51 39.6 °F /  4.2 °C 37.8 °F /  3.2 °C 29.7in /  1004.1hPa WNW 4mph /  6.4km/h 4mph /  6.4km/h 93% 0in /  0.0mm 65 W/m2
14:57 39.6 °F /  4.2 °C 37.4 °F /  3 °C 29.7in /  1004.1hPa West 2mph /  3.2km/h 3mph /  4.8km/h 92% 0in /  0.0mm 65 W/m2
15:02 39.6 °F /  4.2 °C 37.4 °F /  3 °C 29.7in /  1004.1hPa West 0.9mph /  1.4km/h 3mph /  4.8km/h 92% 0in /  0.0mm 56 W/m2
15:07 39.6 °F /  4.2 °C 37.4 °F /  3 °C 29.7in /  1004.4hPa West 4mph /  6.4km/h 12mph /  19.3km/h 92% 0in /  0.0mm 28 W/m2
15:12 39.4 °F /  4.1 °C 37 °F /  2.8 °C 29.7in /  1004.4hPa WNW 2.9mph /  4.7km/h 8mph /  12.9km/h 91% 0in /  0.0mm 19 W/m2
15:17 39.2 °F /  4 °C 36.9 °F /  2.7 °C 29.7in /  1004.4hPa West 2mph /  3.2km/h 4mph /  6.4km/h 91% 0in /  0.0mm 32 W/m2
15:22 39 °F /  3.9 °C 36.7 °F /  2.6 °C 29.7in /  1004.4hPa West 2mph /  3.2km/h 4mph /  6.4km/h 91% 0in /  0.0mm 32 W/m2
15:27 39 °F /  3.9 °C 36.9 °F /  2.7 °C 29.7in /  1004.4hPa WSW 4.9mph /  7.9km/h 7mph /  11.3km/h 92% 0in /  0.0mm 39 W/m2
15:32 39 °F /  3.9 °C 36.7 °F /  2.6 °C 29.7in /  1004.7hPa WNW 2.9mph /  4.7km/h 3mph /  4.8km/h 91% 0in /  0.0mm 32 W/m2
15:37 38.8 °F /  3.8 °C 36.5 °F /  2.5 °C 29.7in /  1004.7hPa West 2mph /  3.2km/h 7mph /  11.3km/h 91% 0in /  0.0mm 21 W/m2
15:42 38.8 °F /  3.8 °C 36.5 °F /  2.5 °C 29.7in /  1004.7hPa West 2.9mph /  4.7km/h 6mph /  9.7km/h 91% 0in /  0.0mm 16 W/m2
15:47 38.8 °F /  3.8 °C 36.5 °F /  2.5 °C 29.7in /  1004.7hPa West 2mph /  3.2km/h 4mph /  6.4km/h 91% 0in /  0.0mm 19 W/m2
15:52 38.8 °F /  3.8 °C 36.7 °F /  2.6 °C 29.7in /  1004.7hPa West 2.9mph /  4.7km/h 4mph /  6.4km/h 92% 0in /  0.0mm 19 W/m2
15:57 38.7 °F /  3.7 °C 36.3 °F /  2.4 °C 29.7in /  1004.7hPa NW 2.9mph /  4.7km/h 4mph /  6.4km/h 91% 0in /  0.0mm 25 W/m2
16:02 38.7 °F /  3.7 °C 36.3 °F /  2.4 °C 29.7in /  1005.1hPa West 0.9mph /  1.4km/h 3mph /  4.8km/h 91% 0in /  0.0mm 26 W/m2
16:07 38.7 °F /  3.7 °C 36.3 °F /  2.4 °C 29.7in /  1005.1hPa WNW 0.9mph /  1.4km/h 3mph /  4.8km/h 91% 0in /  0.0mm 19 W/m2
16:12 38.7 °F /  3.7 °C 36.5 °F /  2.5 °C 29.7in /  1005.1hPa WNW 2mph /  3.2km/h 2mph /  3.2km/h 92% 0in /  0.0mm 18 W/m2
16:17 38.7 °F /  3.7 °C 36.5 °F /  2.5 °C 29.7in /  1005.1hPa WNW 0.9mph /  1.4km/h 2mph /  3.2km/h 92% 0in /  0.0mm 12 W/m2
16:22 38.7 °F /  3.7 °C 36.5 °F /  2.5 °C 29.7in /  1005.1hPa Calm   1mph /  1.6km/h 92% 0in /  0.0mm 11 W/m2
16:27 38.5 °F /  3.6 °C 36.7 °F /  2.6 °C 29.7in /  1005.4hPa WSW 0.9mph /  1.4km/h 1mph /  1.6km/h 93% 0in /  0.0mm 5 W/m2
16:32 38.5 °F /  3.6 °C 36.7 °F /  2.6 °C 29.7in /  1005.4hPa Calm   1mph /  1.6km/h 93% 0in /  0.0mm 5 W/m2
16:37 38.7 °F /  3.7 °C 36.9 °F /  2.7 °C 29.7in /  1005.4hPa WSW 0.9mph /  1.4km/h 2mph /  3.2km/h 93% 0in /  0.0mm 0 W/m2
16:42 38.7 °F /  3.7 °C 36.9 °F /  2.7 °C 29.7in /  1005.4hPa West 0.9mph /  1.4km/h 2mph /  3.2km/h 93% 0in /  0.0mm 0 W/m2
16:47 38.7 °F /  3.7 °C 36.9 °F /  2.7 °C 29.7in /  1005.4hPa West 0.9mph /  1.4km/h 2mph /  3.2km/h 93% 0in /  0.0mm 0 W/m2
16:52 38.7 °F /  3.7 °C 36.9 °F /  2.7 °C 29.7in /  1005.4hPa Calm   1mph /  1.6km/h 93% 0in /  0.0mm 0 W/m2
16:57 38.7 °F /  3.7 °C 37 °F /  2.8 °C 29.7in /  1005.4hPa Calm   1mph /  1.6km/h 94% 0in /  0.0mm 0 W/m2
17:02 38.7 °F /  3.7 °C 37 °F /  2.8 °C 29.7in /  1005.4hPa Calm     94% 0in /  0.0mm 0 W/m2
17:07 38.7 °F /  3.7 °C 37 °F /  2.8 °C 29.7in /  1005.8hPa Calm   1mph /  1.6km/h 94% 0in /  0.0mm 0 W/m2
17:12 38.5 °F /  3.6 °C 36.9 °F /  2.7 °C 29.7in /  1005.8hPa West 0.9mph /  1.4km/h 4mph /  6.4km/h 94% 0in /  0.0mm 0 W/m2
17:17 38.5 °F /  3.6 °C 36.7 °F /  2.6 °C 29.7in /  1005.8hPa Calm   1mph /  1.6km/h 93% 0in /  0.0mm 0 W/m2
17:22 38.3 °F /  3.5 °C 36.5 °F /  2.5 °C 29.7in /  1005.8hPa Calm   3mph /  4.8km/h 93% 0in /  0.0mm 0 W/m2
17:27 38.1 °F /  3.4 °C 36.3 °F /  2.4 °C 29.7in /  1005.8hPa WNW 2.9mph /  4.7km/h 4mph /  6.4km/h 93% 0in /  0.0mm 0 W/m2
17:32 38.1 °F /  3.4 °C 36 °F /  2.2 °C 29.7in /  1005.8hPa West 2mph /  3.2km/h 4mph /  6.4km/h 92% 0in /  0.0mm 0 W/m2
17:37 38.1 °F /  3.4 °C 35.8 °F /  2.1 °C 29.7in /  1005.8hPa SW 0.9mph /  1.4km/h 2mph /  3.2km/h 91% 0.01in /  0.2mm 0 W/m2
17:42 38.1 °F /  3.4 °C 35.8 °F /  2.1 °C 29.7in /  1005.8hPa Calm   2mph /  3.2km/h 91% 0.01in /  0.2mm 0 W/m2
17:47 38.1 °F /  3.4 °C 35.8 °F /  2.1 °C 29.7in /  1005.8hPa ESE 2mph /  3.2km/h 3mph /  4.8km/h 91% 0.01in /  0.2mm 0 W/m2
17:52 38.1 °F /  3.4 °C 35.8 °F /  2.1 °C 29.7in /  1006.1hPa ENE 0.9mph /  1.4km/h 1mph /  1.6km/h 91% 0.01in /  0.2mm 0 W/m2
17:57 38.1 °F /  3.4 °C 35.8 °F /  2.1 °C 29.7in /  1006.1hPa North 0.9mph /  1.4km/h 2mph /  3.2km/h 91% 0.01in /  0.2mm 0 W/m2
18:02 38.1 °F /  3.4 °C 35.8 °F /  2.1 °C 29.7in /  1006.1hPa Calm   2mph /  3.2km/h 91% 0.01in /  0.2mm 0 W/m2
18:07 38.1 °F /  3.4 °C 35.8 °F /  2.1 °C 29.7in /  1006.1hPa North 0.9mph /  1.4km/h 1mph /  1.6km/h 91% 0.01in /  0.2mm 0 W/m2
18:12 38.1 °F /  3.4 °C 36 °F /  2.2 °C 29.7in /  1006.1hPa South 0.9mph /  1.4km/h 2mph /  3.2km/h 92% 0.01in /  0.2mm 0 W/m2
18:17 38.1 °F /  3.4 °C 36 °F /  2.2 °C 29.7in /  1006.1hPa Calm   1mph /  1.6km/h 92% 0.01in /  0.2mm 0 W/m2
18:22 38.1 °F /  3.4 °C 36 °F /  2.2 °C 29.7in /  1006.1hPa Calm   1mph /  1.6km/h 92% 0.01in /  0.2mm 0 W/m2
18:27 37.9 °F /  3.3 °C 35.8 °F /  2.1 °C 29.7in /  1006.1hPa Calm   1mph /  1.6km/h 92% 0.01in /  0.2mm 0 W/m2
18:32 37.9 °F /  3.3 °C 35.8 °F /  2.1 °C 29.7in /  1006.1hPa Calm     92% 0.01in /  0.2mm 0 W/m2
18:37 37.9 °F /  3.3 °C 35.8 °F /  2.1 °C 29.7in /  1006.1hPa West 2mph /  3.2km/h 6mph /  9.7km/h 92% 0in /  0.0mm 0 W/m2
18:42 37.9 °F /  3.3 °C 35.8 °F /  2.1 °C 29.7in /  1006.1hPa Calm   2mph /  3.2km/h 92% 0in /  0.0mm 0 W/m2
18:47 37.9 °F /  3.3 °C 36.1 °F /  2.3 °C 29.7in /  1006.1hPa Calm   6mph /  9.7km/h 93% 0in /  0.0mm 0 W/m2
18:52 37.9 °F /  3.3 °C 36.1 °F /  2.3 °C 29.7in /  1006.4hPa Calm     93% 0in /  0.0mm 0 W/m2
18:57 37.9 °F /  3.3 °C 36.1 °F /  2.3 °C 29.7in /  1006.4hPa ESE 2mph /  3.2km/h 4mph /  6.4km/h 93% 0.01in /  0.2mm 0 W/m2
19:02 37.8 °F /  3.2 °C 36 °F /  2.2 °C 29.7in /  1006.4hPa Calm   3mph /  4.8km/h 93% 0.01in /  0.2mm 0 W/m2
19:07 37.8 °F /  3.2 °C 36 °F /  2.2 °C 29.7in /  1006.4hPa NE 0.9mph /  1.4km/h 1mph /  1.6km/h 93% 0.01in /  0.2mm 0 W/m2
19:12 37.8 °F /  3.2 °C 36 °F /  2.2 °C 29.7in /  1006.4hPa Calm   3mph /  4.8km/h 93% 0.01in /  0.2mm 0 W/m2
19:17 37.8 °F /  3.2 °C 36 °F /  2.2 °C 29.7in /  1006.4hPa SE 0.9mph /  1.4km/h 3mph /  4.8km/h 93% 0.01in /  0.2mm 0 W/m2
19:22 37.6 °F /  3.1 °C 35.8 °F /  2.1 °C 29.7in /  1006.4hPa Calm   2mph /  3.2km/h 93% 0.01in /  0.2mm 0 W/m2
19:27 37.8 °F /  3.2 °C 36 °F /  2.2 °C 29.7in /  1006.4hPa East 2.9mph /  4.7km/h 3mph /  4.8km/h 93% 0.01in /  0.2mm 0 W/m2
19:32 37.6 °F /  3.1 °C 35.8 °F /  2.1 °C 29.7in /  1006.4hPa Calm     93% 0.01in /  0.2mm 0 W/m2
19:37 37.6 °F /  3.1 °C 35.8 °F /  2.1 °C 29.7in /  1006.4hPa ESE 0.9mph /  1.4km/h 1mph /  1.6km/h 93% 0.01in /  0.2mm 0 W/m2
19:42 37.6 °F /  3.1 °C 35.8 °F /  2.1 °C 29.7in /  1006.4hPa Calm   1mph /  1.6km/h 93% 0.01in /  0.2mm 0 W/m2
19:47 37.6 °F /  3.1 °C 36 °F /  2.2 °C 29.7in /  1006.4hPa Calm   5mph /  8km/h 94% 0.01in /  0.2mm 0 W/m2
19:52 37.6 °F /  3.1 °C 36 °F /  2.2 °C 29.7in /  1006.4hPa Calm   2mph /  3.2km/h 94% 0.01in /  0.2mm 0 W/m2
19:58 37.8 °F /  3.2 °C 36.1 °F /  2.3 °C 29.7in /  1006.4hPa WNW 0.9mph /  1.4km/h 5mph /  8km/h 94% 0in /  0.0mm 0 W/m2
20:03 37.8 °F /  3.2 °C 36.1 °F /  2.3 °C 29.7in /  1006.4hPa WNW 2mph /  3.2km/h 6mph /  9.7km/h 94% 0in /  0.0mm 0 W/m2
20:08 37.8 °F /  3.2 °C 36 °F /  2.2 °C 29.7in /  1006.4hPa West 0.9mph /  1.4km/h 2mph /  3.2km/h 93% 0in /  0.0mm 0 W/m2
20:13 37.8 °F /  3.2 °C 36 °F /  2.2 °C 29.7in /  1006.4hPa Calm   2mph /  3.2km/h 93% 0in /  0.0mm 0 W/m2
20:18 37.8 °F /  3.2 °C 36 °F /  2.2 °C 29.7in /  1006.4hPa SSW 0.9mph /  1.4km/h 2mph /  3.2km/h 93% 0in /  0.0mm 0 W/m2
20:23 37.8 °F /  3.2 °C 36 °F /  2.2 °C 29.7in /  1006.4hPa West 0.9mph /  1.4km/h 2mph /  3.2km/h 93% 0in /  0.0mm 0 W/m2
20:28 37.8 °F /  3.2 °C 36.1 °F /  2.3 °C 29.7in /  1006.4hPa Calm   2mph /  3.2km/h 94% 0in /  0.0mm 0 W/m2
20:33 37.8 °F /  3.2 °C 36.1 °F /  2.3 °C 29.7in /  1006.4hPa SW 2mph /  3.2km/h 3mph /  4.8km/h 94% 0in /  0.0mm 0 W/m2
20:38 37.8 °F /  3.2 °C 36.1 °F /  2.3 °C 29.7in /  1006.8hPa NNE 0.9mph /  1.4km/h 3mph /  4.8km/h 94% 0in /  0.0mm 0 W/m2
20:43 37.8 °F /  3.2 °C 36.1 °F /  2.3 °C 29.7in /  1006.8hPa Calm   1mph /  1.6km/h 94% 0in /  0.0mm 0 W/m2
20:48 37.8 °F /  3.2 °C 36.1 °F /  2.3 °C 29.7in /  1006.8hPa North 0.9mph /  1.4km/h 2mph /  3.2km/h 94% 0in /  0.0mm 0 W/m2
20:53 37.8 °F /  3.2 °C 36.1 °F /  2.3 °C 29.7in /  1006.8hPa NW 2.9mph /  4.7km/h 3mph /  4.8km/h 94% 0in /  0.0mm 0 W/m2
20:58 37.9 °F /  3.3 °C 36.3 °F /  2.4 °C 29.7in /  1006.8hPa Calm   2mph /  3.2km/h 94% 0in /  0.0mm 0 W/m2
21:03 37.9 °F /  3.3 °C 36.3 °F /  2.4 °C 29.7in /  1006.8hPa WNW 0.9mph /  1.4km/h 2mph /  3.2km/h 94% 0in /  0.0mm 0 W/m2
21:08 37.9 °F /  3.3 °C 36.3 °F /  2.4 °C 29.7in /  1006.8hPa Calm   1mph /  1.6km/h 94% 0in /  0.0mm 0 W/m2
21:13 37.9 °F /  3.3 °C 36.3 °F /  2.4 °C 29.7in /  1006.8hPa NNE 3mph /  4.8km/h 3mph /  4.8km/h 94% 0in /  0.0mm 0 W/m2
21:18 37.9 °F /  3.3 °C 36.3 °F /  2.4 °C 29.7in /  1006.8hPa NW 0.9mph /  1.4km/h 2mph /  3.2km/h 94% 0in /  0.0mm 0 W/m2
21:23 37.8 °F /  3.2 °C 36.1 °F /  2.3 °C 29.7in /  1006.8hPa SE 0.9mph /  1.4km/h 1mph /  1.6km/h 94% 0in /  0.0mm 0 W/m2
21:28 37.9 °F /  3.3 °C 36.3 °F /  2.4 °C 29.7in /  1006.8hPa East 2mph /  3.2km/h 2mph /  3.2km/h 94% 0in /  0.0mm 0 W/m2
21:33 37.9 °F /  3.3 °C 36.3 °F /  2.4 °C 29.7in /  1006.8hPa NNW 2mph /  3.2km/h 4mph /  6.4km/h 94% 0in /  0.0mm 0 W/m2
21:38 37.9 °F /  3.3 °C 36.3 °F /  2.4 °C 29.7in /  1006.8hPa North 0.9mph /  1.4km/h 3mph /  4.8km/h 94% 0in /  0.0mm 0 W/m2
21:43 37.9 °F /  3.3 °C 36.3 °F /  2.4 °C 29.7in /  1006.8hPa ENE 0.9mph /  1.4km/h 2mph /  3.2km/h 94% 0in /  0.0mm 0 W/m2
21:48 37.9 °F /  3.3 °C 36.1 °F /  2.3 °C 29.7in /  1006.8hPa NNE 4.9mph /  7.9km/h 5mph /  8km/h 93% 0in /  0.0mm 0 W/m2
21:53 37.9 °F /  3.3 °C 36.1 °F /  2.3 °C 29.7in /  1006.4hPa Calm   3mph /  4.8km/h 93% 0in /  0.0mm 0 W/m2
21:58 37.9 °F /  3.3 °C 36.1 °F /  2.3 °C 29.7in /  1006.4hPa NE 0.9mph /  1.4km/h 3mph /  4.8km/h 93% 0in /  0.0mm 0 W/m2
22:03 37.9 °F /  3.3 °C 36.1 °F /  2.3 °C 29.7in /  1006.4hPa NW 2.9mph /  4.7km/h 3mph /  4.8km/h 93% 0in /  0.0mm 0 W/m2
22:08 37.9 °F /  3.3 °C 36.1 °F /  2.3 °C 29.7in /  1006.4hPa North 2mph /  3.2km/h 2mph /  3.2km/h 93% 0in /  0.0mm 0 W/m2
22:13 37.9 °F /  3.3 °C 36.1 °F /  2.3 °C 29.7in /  1006.4hPa Calm   4mph /  6.4km/h 93% 0in /  0.0mm 0 W/m2
22:18 37.9 °F /  3.3 °C 36.1 °F /  2.3 °C 29.7in /  1006.8hPa Calm   4mph /  6.4km/h 93% 0in /  0.0mm 0 W/m2
22:23 37.8 °F /  3.2 °C 36 °F /  2.2 °C 29.7in /  1006.8hPa Calm   1mph /  1.6km/h 93% 0in /  0.0mm 0 W/m2
22:28 37.8 °F /  3.2 °C 36 °F /  2.2 °C 29.7in /  1006.8hPa WNW 0.9mph /  1.4km/h 4mph /  6.4km/h 93% 0in /  0.0mm 0 W/m2
22:33 37.8 °F /  3.2 °C 36 °F /  2.2 °C 29.7in /  1006.4hPa WSW 2mph /  3.2km/h 6mph /  9.7km/h 93% 0in /  0.0mm 0 W/m2
22:38 37.8 °F /  3.2 °C 36 °F /  2.2 °C 29.7in /  1006.4hPa WNW 0.9mph /  1.4km/h 2mph /  3.2km/h 93% 0in /  0.0mm 0 W/m2
22:43 37.8 °F /  3.2 °C 36 °F /  2.2 °C 29.7in /  1006.4hPa West 0.9mph /  1.4km/h 6mph /  9.7km/h 93% 0in /  0.0mm 0 W/m2
22:48 37.8 °F /  3.2 °C 36 °F /  2.2 °C 29.7in /  1006.4hPa Calm   1mph /  1.6km/h 93% 0in /  0.0mm 0 W/m2
22:53 37.8 °F /  3.2 °C 36 °F /  2.2 °C 29.7in /  1006.4hPa NNE 0.9mph /  1.4km/h 3mph /  4.8km/h 93% 0in /  0.0mm 0 W/m2
22:58 37.6 °F /  3.1 °C 35.8 °F /  2.1 °C 29.7in /  1006.4hPa East 2.9mph /  4.7km/h 3mph /  4.8km/h 93% 0in /  0.0mm 0 W/m2
23:03 37.6 °F /  3.1 °C 35.8 °F /  2.1 °C 29.7in /  1006.4hPa Calm   3mph /  4.8km/h 93% 0in /  0.0mm 0 W/m2
23:08 37.4 °F /  3 °C 35.6 °F /  2 °C 29.7in /  1006.4hPa Calm   2mph /  3.2km/h 93% 0in /  0.0mm 0 W/m2
23:13 37.4 °F /  3 °C 35.6 °F /  2 °C 29.7in /  1006.4hPa Calm   1mph /  1.6km/h 93% 0in /  0.0mm 0 W/m2
23:18 37.4 °F /  3 °C 35.6 °F /  2 °C 29.7in /  1006.1hPa NW 0.9mph /  1.4km/h 2mph /  3.2km/h 93% 0in /  0.0mm 0 W/m2
23:23 37.4 °F /  3 °C 35.6 °F /  2 °C 29.7in /  1006.1hPa NW 0.9mph /  1.4km/h 2mph /  3.2km/h 93% 0in /  0.0mm 0 W/m2
23:28 37.4 °F /  3 °C 35.6 °F /  2 °C 29.7in /  1006.1hPa Calm   2mph /  3.2km/h 93% 0in /  0.0mm 0 W/m2
23:33 37.2 °F /  2.9 °C 35.4 °F /  1.9 °C 29.7in /  1006.1hPa North 0.9mph /  1.4km/h 1mph /  1.6km/h 93% 0in /  0.0mm 0 W/m2
23:38 37.4 °F /  3 °C 35.6 °F /  2 °C 29.7in /  1006.1hPa Calm   2mph /  3.2km/h 93% 0in /  0.0mm 0 W/m2
23:43 37.4 °F /  3 °C 35.6 °F /  2 °C 29.7in /  1006.1hPa Calm   4mph /  6.4km/h 93% 0in /  0.0mm 0 W/m2
23:48 37.4 °F /  3 °C 35.6 °F /  2 °C 29.7in /  1006.1hPa North 2mph /  3.2km/h 3mph /  4.8km/h 93% 0in /  0.0mm 0 W/m2
23:53 37.4 °F /  3 °C 35.6 °F /  2 °C 29.7in /  1006.1hPa North 0.9mph /  1.4km/h 2mph /  3.2km/h 93% 0in /  0.0mm 0 W/m2
23:58 37.2 °F /  2.9 °C 35.4 °F /  1.9 °C 29.7in /  1006.1hPa NE 2mph /  3.2km/h 3mph /  4.8km/h 93% 0in /  0.0mm 0 W/m2
Juneau County Weather
Compliments of Weather Underground - 4 mb